sensor_id;sensor_type;location;lat;lon;timestamp;pressure;altitude;pressure_sealevel;temperature;humidity
35778;BME280;21899;42.662;23.316;2022-09-13T00:01:45;94259.59;;;15.34;81.11
35778;BME280;21899;42.662;23.316;2022-09-13T00:04:10;94258.72;;;15.41;80.54
35778;BME280;21899;42.662;23.316;2022-09-13T00:06:36;94261.59;;;15.50;80.26
35778;BME280;21899;42.662;23.316;2022-09-13T00:09:01;94257.66;;;15.54;80.35
35778;BME280;21899;42.662;23.316;2022-09-13T00:11:29;94248.53;;;15.48;80.39
35778;BME280;21899;42.662;23.316;2022-09-13T00:13:56;94254.00;;;15.45;80.66
35778;BME280;21899;42.662;23.316;2022-09-13T00:16:24;94252.41;;;15.47;81.00
35778;BME280;21899;42.662;23.316;2022-09-13T00:18:51;94237.06;;;15.44;80.92
35778;BME280;21899;42.662;23.316;2022-09-13T00:21:19;94242.31;;;15.51;80.53
35778;BME280;21899;42.662;23.316;2022-09-13T00:23:47;94243.22;;;15.45;81.28
35778;BME280;21899;42.662;23.316;2022-09-13T00:26:15;94230.91;;;15.44;81.18
35778;BME280;21899;42.662;23.316;2022-09-13T00:28:42;94237.75;;;15.48;80.98
35778;BME280;21899;42.662;23.316;2022-09-13T00:31:09;94237.81;;;15.45;81.21
35778;BME280;21899;42.662;23.316;2022-09-13T00:33:36;94239.00;;;15.44;81.40
35778;BME280;21899;42.662;23.316;2022-09-13T00:36:07;94240.09;;;15.46;80.86
35778;BME280;21899;42.662;23.316;2022-09-13T00:38:37;94232.34;;;15.48;81.23
35778;BME280;21899;42.662;23.316;2022-09-13T00:41:04;94232.97;;;15.72;80.09
35778;BME280;21899;42.662;23.316;2022-09-13T00:43:46;94234.31;;;15.64;80.23
35778;BME280;21899;42.662;23.316;2022-09-13T00:46:18;94223.91;;;15.46;81.25
35778;BME280;21899;42.662;23.316;2022-09-13T00:48:46;94233.03;;;15.52;81.13
35778;BME280;21899;42.662;23.316;2022-09-13T00:51:12;94239.78;;;15.60;80.88
35778;BME280;21899;42.662;23.316;2022-09-13T00:53:41;94230.94;;;15.60;80.69
35778;BME280;21899;42.662;23.316;2022-09-13T00:56:14;94228.16;;;15.63;80.75
35778;BME280;21899;42.662;23.316;2022-09-13T00:58:51;94218.13;;;15.64;80.12
35778;BME280;21899;42.662;23.316;2022-09-13T01:01:18;94218.75;;;15.72;79.91
35778;BME280;21899;42.662;23.316;2022-09-13T01:03:46;94225.34;;;15.51;80.74
35778;BME280;21899;42.662;23.316;2022-09-13T01:06:23;94230.69;;;15.54;80.61
35778;BME280;21899;42.662;23.316;2022-09-13T01:08:54;94220.75;;;15.84;78.98
35778;BME280;21899;42.662;23.316;2022-09-13T01:11:32;94230.03;;;15.83;79.07
35778;BME280;21899;42.662;23.316;2022-09-13T01:14:04;94230.03;;;15.67;80.21
35778;BME280;21899;42.662;23.316;2022-09-13T01:16:31;94222.25;;;15.52;80.53
35778;BME280;21899;42.662;23.316;2022-09-13T01:18:56;94228.75;;;15.55;80.30
35778;BME280;21899;42.662;23.316;2022-09-13T01:24:12;94231.88;;;15.86;78.85
35778;BME280;21899;42.662;23.316;2022-09-13T01:35:07;94215.28;;;15.71;79.78
35778;BME280;21899;42.662;23.316;2022-09-13T01:37:42;94213.66;;;15.74;79.89
35778;BME280;21899;42.662;23.316;2022-09-13T01:51:03;94206.19;;;15.81;79.75
35778;BME280;21899;42.662;23.316;2022-09-13T01:53:39;94216.97;;;15.81;79.52
35778;BME280;21899;42.662;23.316;2022-09-13T01:58:47;94207.91;;;15.55;81.11
35778;BME280;21899;42.662;23.316;2022-09-13T02:01:20;94206.97;;;15.46;81.14
35778;BME280;21899;42.662;23.316;2022-09-13T02:04:07;94207.16;;;15.35;82.15
35778;BME280;21899;42.662;23.316;2022-09-13T02:06:40;94207.25;;;15.51;80.14
35778;BME280;21899;42.662;23.316;2022-09-13T02:09:12;94208.53;;;15.63;80.25
35778;BME280;21899;42.662;23.316;2022-09-13T02:11:41;94209.25;;;15.28;82.00
35778;BME280;21899;42.662;23.316;2022-09-13T02:14:13;94204.06;;;15.56;80.78
35778;BME280;21899;42.662;23.316;2022-09-13T02:16:42;94202.97;;;15.34;82.02
35778;BME280;21899;42.662;23.316;2022-09-13T02:19:25;94206.56;;;15.28;82.10
35778;BME280;21899;42.662;23.316;2022-09-13T02:21:56;94208.78;;;15.33;82.05
35778;BME280;21899;42.662;23.316;2022-09-13T02:24:39;94194.13;;;15.14;82.36
35778;BME280;21899;42.662;23.316;2022-09-13T02:27:08;94202.28;;;15.11;83.36
35778;BME280;21899;42.662;23.316;2022-09-13T02:29:38;94201.56;;;15.10;83.55
35778;BME280;21899;42.662;23.316;2022-09-13T02:32:15;94199.34;;;15.05;83.45
35778;BME280;21899;42.662;23.316;2022-09-13T02:34:55;94204.03;;;15.01;84.25
35778;BME280;21899;42.662;23.316;2022-09-13T02:37:23;94207.22;;;14.96;84.69
35778;BME280;21899;42.662;23.316;2022-09-13T02:39:58;94207.47;;;15.21;82.83
35778;BME280;21899;42.662;23.316;2022-09-13T02:42:46;94200.50;;;15.04;84.03
35778;BME280;21899;42.662;23.316;2022-09-13T02:45:14;94207.44;;;15.05;83.66
35778;BME280;21899;42.662;23.316;2022-09-13T02:48:12;94209.72;;;15.07;84.05
35778;BME280;21899;42.662;23.316;2022-09-13T02:50:48;94205.41;;;15.09;83.56
35778;BME280;21899;42.662;23.316;2022-09-13T02:53:32;94219.47;;;15.36;82.34
35778;BME280;21899;42.662;23.316;2022-09-13T02:59:31;94206.78;;;15.17;82.99
35778;BME280;21899;42.662;23.316;2022-09-13T03:01:34;94209.16;;;15.15;83.34
35778;BME280;21899;42.662;23.316;2022-09-13T03:04:01;94209.47;;;15.17;82.90
35778;BME280;21899;42.662;23.316;2022-09-13T03:06:28;94203.84;;;15.12;82.81
35778;BME280;21899;42.662;23.316;2022-09-13T03:08:56;94213.06;;;15.11;83.00
35778;BME280;21899;42.662;23.316;2022-09-13T03:24:48;94210.34;;;14.95;83.86
35778;BME280;21899;42.662;23.316;2022-09-13T03:35:28;94210.63;;;14.81;83.91
35778;BME280;21899;42.662;23.316;2022-09-13T03:38:04;94216.22;;;14.90;83.62
35778;BME280;21899;42.662;23.316;2022-09-13T03:43:04;94208.41;;;14.95;82.44
35778;BME280;21899;42.662;23.316;2022-09-13T03:45:32;94205.00;;;15.11;81.79
35778;BME280;21899;42.662;23.316;2022-09-13T03:48:01;94205.00;;;15.11;81.43
35778;BME280;21899;42.662;23.316;2022-09-13T03:50:27;94204.19;;;15.14;81.01
35778;BME280;21899;42.662;23.316;2022-09-13T03:53:00;94204.56;;;15.12;80.45
35778;BME280;21899;42.662;23.316;2022-09-13T03:55:29;94207.44;;;15.05;80.85
35778;BME280;21899;42.662;23.316;2022-09-13T03:57:56;94201.97;;;14.89;81.49
35778;BME280;21899;42.662;23.316;2022-09-13T04:00:22;94204.88;;;14.98;80.93
35778;BME280;21899;42.662;23.316;2022-09-13T04:02:48;94215.28;;;14.38;83.52
35778;BME280;21899;42.662;23.316;2022-09-13T04:05:14;94222.59;;;14.37;83.81
35778;BME280;21899;42.662;23.316;2022-09-13T04:07:39;94219.91;;;14.37;83.33
35778;BME280;21899;42.662;23.316;2022-09-13T04:10:05;94214.81;;;14.62;82.38
35778;BME280;21899;42.662;23.316;2022-09-13T04:12:31;94218.28;;;14.39;85.08
35778;BME280;21899;42.662;23.316;2022-09-13T04:14:56;94227.47;;;14.19;84.52
35778;BME280;21899;42.662;23.316;2022-09-13T04:17:22;94216.47;;;14.10;85.36
35778;BME280;21899;42.662;23.316;2022-09-13T04:19:47;94211.25;;;14.26;85.03
35778;BME280;21899;42.662;23.316;2022-09-13T04:22:16;94209.53;;;14.12;85.88
35778;BME280;21899;42.662;23.316;2022-09-13T04:24:41;94219.31;;;14.26;84.44
35778;BME280;21899;42.662;23.316;2022-09-13T04:27:08;94227.69;;;14.31;83.94
35778;BME280;21899;42.662;23.316;2022-09-13T04:29:34;94228.91;;;14.27;84.04
35778;BME280;21899;42.662;23.316;2022-09-13T04:32:00;94227.47;;;14.19;84.50
35778;BME280;21899;42.662;23.316;2022-09-13T04:34:26;94228.78;;;14.11;84.94
35778;BME280;21899;42.662;23.316;2022-09-13T04:36:52;94227.25;;;14.10;85.25
35778;BME280;21899;42.662;23.316;2022-09-13T04:39:19;94225.00;;;14.05;85.12
35778;BME280;21899;42.662;23.316;2022-09-13T04:41:45;94234.53;;;14.13;84.69
35778;BME280;21899;42.662;23.316;2022-09-13T04:44:13;94241.97;;;14.28;84.49
35778;BME280;21899;42.662;23.316;2022-09-13T04:46:38;94227.03;;;14.24;83.45
35778;BME280;21899;42.662;23.316;2022-09-13T04:49:04;94241.13;;;14.31;83.69
35778;BME280;21899;42.662;23.316;2022-09-13T04:51:29;94233.78;;;14.35;83.61
35778;BME280;21899;42.662;23.316;2022-09-13T04:53:55;94236.13;;;14.53;81.94
35778;BME280;21899;42.662;23.316;2022-09-13T04:56:22;94247.28;;;14.55;82.03
35778;BME280;21899;42.662;23.316;2022-09-13T04:58:52;94250.31;;;14.57;81.36
35778;BME280;21899;42.662;23.316;2022-09-13T05:01:19;94239.91;;;14.98;79.85
35778;BME280;21899;42.662;23.316;2022-09-13T05:03:45;94240.81;;;14.72;80.88
35778;BME280;21899;42.662;23.316;2022-09-13T05:06:13;94249.44;;;14.83;79.96
35778;BME280;21899;42.662;23.316;2022-09-13T05:08:39;94248.19;;;14.88;79.79
35778;BME280;21899;42.662;23.316;2022-09-13T05:11:06;94243.16;;;14.70;80.83
35778;BME280;21899;42.662;23.316;2022-09-13T05:13:32;94239.34;;;14.68;81.27
35778;BME280;21899;42.662;23.316;2022-09-13T05:15:59;94243.56;;;14.88;80.79
35778;BME280;21899;42.662;23.316;2022-09-13T05:18:26;94240.25;;;15.00;81.03
35778;BME280;21899;42.662;23.316;2022-09-13T05:20:56;94243.63;;;15.24;78.35
35778;BME280;21899;42.662;23.316;2022-09-13T05:23:23;94246.81;;;15.38;76.87
35778;BME280;21899;42.662;23.316;2022-09-13T05:26:02;94245.34;;;15.53;76.07
35778;BME280;21899;42.662;23.316;2022-09-13T05:28:29;94240.13;;;15.62;76.34
35778;BME280;21899;42.662;23.316;2022-09-13T05:34:06;94246.75;;;15.94;73.37
35778;BME280;21899;42.662;23.316;2022-09-13T05:36:32;94242.38;;;16.00;73.14
35778;BME280;21899;42.662;23.316;2022-09-13T05:38:58;94246.06;;;16.22;72.63
35778;BME280;21899;42.662;23.316;2022-09-13T05:41:23;94244.53;;;16.37;71.11
35778;BME280;21899;42.662;23.316;2022-09-13T05:43:49;94243.88;;;16.49;70.95
35778;BME280;21899;42.662;23.316;2022-09-13T05:46:16;94250.88;;;16.62;70.19
35778;BME280;21899;42.662;23.316;2022-09-13T05:48:42;94245.59;;;16.71;69.65
35778;BME280;21899;42.662;23.316;2022-09-13T05:51:11;94255.38;;;16.81;69.01
35778;BME280;21899;42.662;23.316;2022-09-13T05:53:38;94253.13;;;16.80;67.71
35778;BME280;21899;42.662;23.316;2022-09-13T05:56:05;94246.13;;;16.66;67.64
35778;BME280;21899;42.662;23.316;2022-09-13T05:58:31;94249.13;;;16.56;67.70
35778;BME280;21899;42.662;23.316;2022-09-13T06:00:56;94244.13;;;16.38;68.18
35778;BME280;21899;42.662;23.316;2022-09-13T06:03:23;94250.63;;;16.25;69.30
35778;BME280;21899;42.662;23.316;2022-09-13T06:05:48;94237.47;;;16.11;69.92
35778;BME280;21899;42.662;23.316;2022-09-13T06:08:14;94241.34;;;16.10;70.49
35778;BME280;21899;42.662;23.316;2022-09-13T06:10:40;94251.06;;;16.07;70.53
35778;BME280;21899;42.662;23.316;2022-09-13T06:13:06;94235.13;;;16.13;70.65
35778;BME280;21899;42.662;23.316;2022-09-13T06:15:32;94245.72;;;16.20;71.31
35778;BME280;21899;42.662;23.316;2022-09-13T06:17:57;94255.78;;;16.19;70.15
35778;BME280;21899;42.662;23.316;2022-09-13T06:20:23;94251.06;;;16.07;70.68
35778;BME280;21899;42.662;23.316;2022-09-13T06:22:48;94264.63;;;16.20;71.15
35778;BME280;21899;42.662;23.316;2022-09-13T06:25:14;94260.84;;;16.17;70.91
35778;BME280;21899;42.662;23.316;2022-09-13T06:27:40;94253.50;;;16.18;70.39
35778;BME280;21899;42.662;23.316;2022-09-13T06:30:06;94257.81;;;16.15;71.02
35778;BME280;21899;42.662;23.316;2022-09-13T06:32:33;94267.00;;;16.18;71.18
35778;BME280;21899;42.662;23.316;2022-09-13T06:34:59;94270.03;;;16.20;71.44
35778;BME280;21899;42.662;23.316;2022-09-13T06:37:24;94262.97;;;16.26;70.88
35778;BME280;21899;42.662;23.316;2022-09-13T06:39:50;94270.22;;;16.29;70.34
35778;BME280;21899;42.662;23.316;2022-09-13T06:42:16;94265.41;;;16.20;71.23
35778;BME280;21899;42.662;23.316;2022-09-13T06:44:41;94276.81;;;16.28;70.94
35778;BME280;21899;42.662;23.316;2022-09-13T06:47:07;94280.94;;;16.32;70.47
35778;BME280;21899;42.662;23.316;2022-09-13T06:49:32;94279.34;;;16.51;70.72
35778;BME280;21899;42.662;23.316;2022-09-13T06:51:58;94286.91;;;16.72;70.42
35778;BME280;21899;42.662;23.316;2022-09-13T06:54:23;94281.13;;;16.86;69.49
35778;BME280;21899;42.662;23.316;2022-09-13T06:56:49;94281.94;;;16.99;68.23
35778;BME280;21899;42.662;23.316;2022-09-13T06:59:14;94284.72;;;17.12;68.70
35778;BME280;21899;42.662;23.316;2022-09-13T07:01:41;94292.81;;;17.12;68.39
35778;BME280;21899;42.662;23.316;2022-09-13T07:04:12;94288.69;;;17.07;68.85
35778;BME280;21899;42.662;23.316;2022-09-13T07:06:43;94300.22;;;16.95;66.70
35778;BME280;21899;42.662;23.316;2022-09-13T07:09:12;94287.56;;;16.76;67.64
35778;BME280;21899;42.662;23.316;2022-09-13T07:11:39;94295.88;;;16.69;67.75
35778;BME280;21899;42.662;23.316;2022-09-13T07:14:05;94300.69;;;16.61;68.20
35778;BME280;21899;42.662;23.316;2022-09-13T07:16:33;94299.00;;;16.67;67.85
35778;BME280;21899;42.662;23.316;2022-09-13T07:19:02;94290.47;;;16.69;67.05
35778;BME280;21899;42.662;23.316;2022-09-13T07:21:32;94305.81;;;16.88;65.88
35778;BME280;21899;42.662;23.316;2022-09-13T07:23:58;94295.00;;;16.88;66.16
35778;BME280;21899;42.662;23.316;2022-09-13T07:26:25;94303.81;;;17.05;66.24
35778;BME280;21899;42.662;23.316;2022-09-13T07:28:53;94297.38;;;17.15;65.01
35778;BME280;21899;42.662;23.316;2022-09-13T07:31:21;94300.69;;;17.06;64.34
35778;BME280;21899;42.662;23.316;2022-09-13T07:33:52;94306.44;;;17.08;64.10
35778;BME280;21899;42.662;23.316;2022-09-13T07:36:18;94297.47;;;17.11;63.51
35778;BME280;21899;42.662;23.316;2022-09-13T07:38:43;94310.03;;;17.18;63.28
35778;BME280;21899;42.662;23.316;2022-09-13T07:41:17;94299.47;;;17.23;63.49
35778;BME280;21899;42.662;23.316;2022-09-13T07:43:43;94293.63;;;17.25;62.99
35778;BME280;21899;42.662;23.316;2022-09-13T07:48:38;94300.69;;;17.35;61.65
35778;BME280;21899;42.662;23.316;2022-09-13T07:53:38;94307.41;;;17.71;58.69
35778;BME280;21899;42.662;23.316;2022-09-13T07:56:06;94311.22;;;17.86;59.09
35778;BME280;21899;42.662;23.316;2022-09-13T07:58:33;94307.22;;;17.91;58.88
35778;BME280;21899;42.662;23.316;2022-09-13T08:01:26;94313.78;;;17.77;56.47
35778;BME280;21899;42.662;23.316;2022-09-13T08:03:53;94310.50;;;17.57;57.50
35778;BME280;21899;42.662;23.316;2022-09-13T08:06:19;94306.72;;;17.55;57.91
35778;BME280;21899;42.662;23.316;2022-09-13T08:08:45;94308.31;;;17.52;58.61
35778;BME280;21899;42.662;23.316;2022-09-13T08:11:16;94310.31;;;17.64;56.54
35778;BME280;21899;42.662;23.316;2022-09-13T08:13:44;94316.72;;;17.83;56.80
35778;BME280;21899;42.662;23.316;2022-09-13T08:16:09;94320.31;;;17.92;55.45
35778;BME280;21899;42.662;23.316;2022-09-13T08:18:35;94318.56;;;17.98;55.89
35778;BME280;21899;42.662;23.316;2022-09-13T08:21:00;94315.78;;;18.14;55.26
35778;BME280;21899;42.662;23.316;2022-09-13T08:23:26;94313.81;;;18.28;53.99
35778;BME280;21899;42.662;23.316;2022-09-13T08:25:52;94321.31;;;18.11;53.42
35778;BME280;21899;42.662;23.316;2022-09-13T08:28:20;94313.38;;;18.04;53.67
35778;BME280;21899;42.662;23.316;2022-09-13T08:30:46;94313.69;;;17.93;54.41
35778;BME280;21899;42.662;23.316;2022-09-13T08:33:13;94302.03;;;17.96;52.68
35778;BME280;21899;42.662;23.316;2022-09-13T08:35:39;94308.50;;;18.24;52.57
35778;BME280;21899;42.662;23.316;2022-09-13T08:38:05;94310.47;;;18.36;50.64
35778;BME280;21899;42.662;23.316;2022-09-13T08:40:37;94314.16;;;18.42;48.59
35778;BME280;21899;42.662;23.316;2022-09-13T08:43:24;94306.81;;;18.43;48.59
35778;BME280;21899;42.662;23.316;2022-09-13T08:48:39;94303.78;;;18.87;45.58
35778;BME280;21899;42.662;23.316;2022-09-13T08:53:49;94294.38;;;19.01;44.22
35778;BME280;21899;42.662;23.316;2022-09-13T08:56:53;94302.25;;;19.20;44.79
35778;BME280;21899;42.662;23.316;2022-09-13T09:00:34;94295.16;;;19.23;42.38
35778;BME280;21899;42.662;23.316;2022-09-13T09:03:37;94295.81;;;19.27;43.37
35778;BME280;21899;42.662;23.316;2022-09-13T09:05:45;94299.84;;;19.22;44.33
35778;BME280;21899;42.662;23.316;2022-09-13T09:10:50;94302.13;;;19.67;44.16
35778;BME280;21899;42.662;23.316;2022-09-13T09:15:45;94289.09;;;19.53;43.64
35778;BME280;21899;42.662;23.316;2022-09-13T09:18:23;94298.22;;;19.25;43.61
35778;BME280;21899;42.662;23.316;2022-09-13T09:20:54;94306.22;;;19.28;44.11
35778;BME280;21899;42.662;23.316;2022-09-13T09:23:38;94303.41;;;19.32;44.09
35778;BME280;21899;42.662;23.316;2022-09-13T09:26:25;94308.59;;;19.39;44.28
35778;BME280;21899;42.662;23.316;2022-09-13T09:28:58;94300.72;;;19.32;42.92
35778;BME280;21899;42.662;23.316;2022-09-13T09:34:14;94297.44;;;19.24;43.15
35778;BME280;21899;42.662;23.316;2022-09-13T09:37:10;94287.34;;;19.25;44.00
35778;BME280;21899;42.662;23.316;2022-09-13T09:39:40;94292.25;;;19.30;42.19
35778;BME280;21899;42.662;23.316;2022-09-13T09:42:18;94287.22;;;19.28;42.42
35778;BME280;21899;42.662;23.316;2022-09-13T09:44:58;94276.41;;;19.50;43.06
35778;BME280;21899;42.662;23.316;2022-09-13T09:47:33;94275.09;;;19.64;43.45
35778;BME280;21899;42.662;23.316;2022-09-13T09:50:10;94270.66;;;19.79;42.77
35778;BME280;21899;42.662;23.316;2022-09-13T10:00:25;94265.09;;;20.13;41.74
35778;BME280;21899;42.662;23.316;2022-09-13T10:02:54;94266.19;;;20.15;41.92
35778;BME280;21899;42.662;23.316;2022-09-13T10:05:22;94253.50;;;20.21;42.03
35778;BME280;21899;42.662;23.316;2022-09-13T10:07:53;94255.94;;;20.19;42.23
35778;BME280;21899;42.662;23.316;2022-09-13T10:10:24;94253.13;;;20.01;41.91
35778;BME280;21899;42.662;23.316;2022-09-13T10:12:53;94255.75;;;19.83;42.76
35778;BME280;21899;42.662;23.316;2022-09-13T10:15:25;94254.22;;;19.82;42.81
35778;BME280;21899;42.662;23.316;2022-09-13T10:18:03;94246.66;;;19.77;42.44
35778;BME280;21899;42.662;23.316;2022-09-13T10:20:33;94248.91;;;19.70;41.92
35778;BME280;21899;42.662;23.316;2022-09-13T10:25:42;94246.09;;;19.82;42.38
35778;BME280;21899;42.662;23.316;2022-09-13T10:28:15;94244.97;;;20.01;41.79
35778;BME280;21899;42.662;23.316;2022-09-13T10:31:11;94244.13;;;19.83;41.50
35778;BME280;21899;42.662;23.316;2022-09-13T10:33:45;94233.81;;;20.08;40.98
35778;BME280;21899;42.662;23.316;2022-09-13T10:36:35;94231.34;;;20.32;40.82
35778;BME280;21899;42.662;23.316;2022-09-13T10:39:04;94225.19;;;20.49;40.28
35778;BME280;21899;42.662;23.316;2022-09-13T10:41:34;94234.25;;;20.55;39.54
35778;BME280;21899;42.662;23.316;2022-09-13T10:44:05;94226.25;;;20.52;40.10
35778;BME280;21899;42.662;23.316;2022-09-13T10:46:35;94229.72;;;20.43;39.95
35778;BME280;21899;42.662;23.316;2022-09-13T10:49:04;94219.31;;;20.02;40.32
35778;BME280;21899;42.662;23.316;2022-09-13T10:51:34;94224.47;;;20.09;41.23
35778;BME280;21899;42.662;23.316;2022-09-13T10:54:13;94220.97;;;20.00;42.06
35778;BME280;21899;42.662;23.316;2022-09-13T10:56:40;94225.00;;;19.95;40.75
35778;BME280;21899;42.662;23.316;2022-09-13T10:59:27;94212.91;;;19.87;40.96
35778;BME280;21899;42.662;23.316;2022-09-13T11:09:48;94207.09;;;19.67;41.71
35778;BME280;21899;42.662;23.316;2022-09-13T11:15:12;94208.66;;;19.77;41.11
35778;BME280;21899;42.662;23.316;2022-09-13T11:32:07;94195.56;;;20.51;38.97
35778;BME280;21899;42.662;23.316;2022-09-13T11:34:44;94192.88;;;20.60;37.85
35778;BME280;21899;42.662;23.316;2022-09-13T11:37:22;94183.34;;;20.65;37.88
35778;BME280;21899;42.662;23.316;2022-09-13T11:47:38;94188.97;;;20.98;37.84
35778;BME280;21899;42.662;23.316;2022-09-13T11:50:33;94189.72;;;20.80;38.82
35778;BME280;21899;42.662;23.316;2022-09-13T11:56:03;94177.16;;;21.10;37.87
35778;BME280;21899;42.662;23.316;2022-09-13T12:01:10;94181.22;;;21.23;37.08
35778;BME280;21899;42.662;23.316;2022-09-13T12:04:00;94190.56;;;21.40;37.77
35778;BME280;21899;42.662;23.316;2022-09-13T12:06:39;94191.38;;;21.14;35.89
35778;BME280;21899;42.662;23.316;2022-09-13T12:11:44;94193.47;;;20.83;37.39
35778;BME280;21899;42.662;23.316;2022-09-13T12:14:15;94186.53;;;20.82;38.18
35778;BME280;21899;42.662;23.316;2022-09-13T12:16:44;94190.16;;;20.97;38.12
35778;BME280;21899;42.662;23.316;2022-09-13T12:19:24;94186.25;;;20.98;37.78
35778;BME280;21899;42.662;23.316;2022-09-13T12:21:52;94194.88;;;21.05;37.71
35778;BME280;21899;42.662;23.316;2022-09-13T12:31:58;94178.34;;;21.27;35.57
35778;BME280;21899;42.662;23.316;2022-09-13T12:34:34;94178.78;;;21.34;36.29
35778;BME280;21899;42.662;23.316;2022-09-13T12:37:23;94183.75;;;21.45;36.98
35778;BME280;21899;42.662;23.316;2022-09-13T12:49:09;94177.97;;;21.52;36.53
35778;BME280;21899;42.662;23.316;2022-09-13T13:00:29;94176.78;;;21.44;36.96
35778;BME280;21899;42.662;23.316;2022-09-13T13:03:04;94177.44;;;21.30;37.04
35778;BME280;21899;42.662;23.316;2022-09-13T13:11:08;94173.59;;;21.45;36.46
35778;BME280;21899;42.662;23.316;2022-09-13T13:13:41;94172.81;;;21.54;36.44
35778;BME280;21899;42.662;23.316;2022-09-13T13:16:40;94166.00;;;21.58;37.20
35778;BME280;21899;42.662;23.316;2022-09-13T13:21:53;94188.63;;;21.23;38.11
35778;BME280;21899;42.662;23.316;2022-09-13T13:26:45;94182.78;;;20.97;37.57
35778;BME280;21899;42.662;23.316;2022-09-13T13:29:19;94182.47;;;21.04;38.14
35778;BME280;21899;42.662;23.316;2022-09-13T13:57:42;94199.09;;;20.79;38.49
35778;BME280;21899;42.662;23.316;2022-09-13T14:00:20;94200.28;;;20.69;38.96
35778;BME280;21899;42.662;23.316;2022-09-13T14:21:39;94206.19;;;20.67;38.74
35778;BME280;21899;42.662;23.316;2022-09-13T14:24:15;94203.91;;;20.75;38.67
35778;BME280;21899;42.662;23.316;2022-09-13T14:26:49;94196.50;;;20.85;38.81
35778;BME280;21899;42.662;23.316;2022-09-13T14:29:23;94197.25;;;20.85;39.13
35778;BME280;21899;42.662;23.316;2022-09-13T14:32:03;94210.72;;;20.80;39.25
35778;BME280;21899;42.662;23.316;2022-09-13T14:34:33;94203.59;;;20.73;39.34
35778;BME280;21899;42.662;23.316;2022-09-13T14:37:14;94200.88;;;20.55;38.77
35778;BME280;21899;42.662;23.316;2022-09-13T14:39:53;94209.31;;;20.39;39.56
35778;BME280;21899;42.662;23.316;2022-09-13T14:42:18;94216.41;;;20.36;39.83
35778;BME280;21899;42.662;23.316;2022-09-13T14:44:45;94210.69;;;20.34;40.10
35778;BME280;21899;42.662;23.316;2022-09-13T14:47:19;94202.03;;;20.27;38.62
35778;BME280;21899;42.662;23.316;2022-09-13T14:49:50;94196.28;;;20.16;39.14
35778;BME280;21899;42.662;23.316;2022-09-13T14:52:27;94201.13;;;20.30;39.31
35778;BME280;21899;42.662;23.316;2022-09-13T14:55:02;94208.41;;;20.42;38.99
35778;BME280;21899;42.662;23.316;2022-09-13T14:57:35;94205.09;;;20.47;39.06
35778;BME280;21899;42.662;23.316;2022-09-13T15:00:06;94200.09;;;20.36;38.81
35778;BME280;21899;42.662;23.316;2022-09-13T15:02:37;94206.00;;;20.44;38.73
35778;BME280;21899;42.662;23.316;2022-09-13T15:05:05;94213.72;;;20.45;38.44
35778;BME280;21899;42.662;23.316;2022-09-13T15:07:38;94200.41;;;20.29;38.66
35778;BME280;21899;42.662;23.316;2022-09-13T15:10:25;94215.31;;;20.16;38.88
35778;BME280;21899;42.662;23.316;2022-09-13T15:18:01;94207.63;;;20.23;39.19
35778;BME280;21899;42.662;23.316;2022-09-13T15:20:50;94211.53;;;20.22;39.38
35778;BME280;21899;42.662;23.316;2022-09-13T15:23:31;94212.44;;;20.19;39.48
35778;BME280;21899;42.662;23.316;2022-09-13T15:31:25;94204.00;;;20.26;39.98
35778;BME280;21899;42.662;23.316;2022-09-13T15:36:42;94202.47;;;20.16;39.82
35778;BME280;21899;42.662;23.316;2022-09-13T15:41:36;94217.44;;;20.30;39.88
35778;BME280;21899;42.662;23.316;2022-09-13T15:44:03;94208.84;;;20.22;40.13
35778;BME280;21899;42.662;23.316;2022-09-13T15:46:30;94208.97;;;20.19;40.69
35778;BME280;21899;42.662;23.316;2022-09-13T15:48:58;94208.75;;;20.13;40.29
35778;BME280;21899;42.662;23.316;2022-09-13T15:51:26;94216.63;;;20.11;40.69
35778;BME280;21899;42.662;23.316;2022-09-13T15:53:52;94212.91;;;19.87;40.26
35778;BME280;21899;42.662;23.316;2022-09-13T15:56:21;94219.69;;;19.83;39.90
35778;BME280;21899;42.662;23.316;2022-09-13T15:58:50;94220.13;;;19.81;39.88
35778;BME280;21899;42.662;23.316;2022-09-13T16:01:16;94226.63;;;19.84;39.36
35778;BME280;21899;42.662;23.316;2022-09-13T16:03:42;94232.44;;;19.64;39.91
35778;BME280;21899;42.662;23.316;2022-09-13T16:06:09;94231.53;;;19.67;40.46
35778;BME280;21899;42.662;23.316;2022-09-13T16:08:35;94231.22;;;19.65;40.88
35778;BME280;21899;42.662;23.316;2022-09-13T16:11:01;94228.16;;;19.54;41.26
35778;BME280;21899;42.662;23.316;2022-09-13T16:13:27;94231.31;;;19.53;41.77
35778;BME280;21899;42.662;23.316;2022-09-13T16:15:52;94234.03;;;19.53;41.85
35778;BME280;21899;42.662;23.316;2022-09-13T16:18:18;94232.78;;;19.44;42.32
35778;BME280;21899;42.662;23.316;2022-09-13T16:20:44;94237.88;;;19.42;42.42
35778;BME280;21899;42.662;23.316;2022-09-13T16:23:10;94240.41;;;19.37;42.54
35778;BME280;21899;42.662;23.316;2022-09-13T16:25:36;94226.13;;;19.24;43.50
35778;BME280;21899;42.662;23.316;2022-09-13T16:28:04;94230.94;;;19.20;43.60
35778;BME280;21899;42.662;23.316;2022-09-13T16:30:29;94232.28;;;19.15;43.68
35778;BME280;21899;42.662;23.316;2022-09-13T16:32:56;94234.13;;;19.06;44.01
35778;BME280;21899;42.662;23.316;2022-09-13T16:35:25;94243.84;;;18.94;43.71
35778;BME280;21899;42.662;23.316;2022-09-13T16:37:51;94243.16;;;18.81;43.69
35778;BME280;21899;42.662;23.316;2022-09-13T16:40:17;94240.75;;;18.83;44.15
35778;BME280;21899;42.662;23.316;2022-09-13T16:42:44;94243.59;;;18.80;43.93
35778;BME280;21899;42.662;23.316;2022-09-13T16:45:10;94243.31;;;18.65;44.44
35778;BME280;21899;42.662;23.316;2022-09-13T16:47:36;94242.47;;;18.56;44.11
35778;BME280;21899;42.662;23.316;2022-09-13T16:50:03;94256.34;;;18.58;44.31